createdAt,value
2023-01-05T00:01:42.652Z,93.30
2023-01-05T00:04:28.638Z,93.00
2023-01-05T00:07:14.589Z,93.10
2023-01-05T00:10:00.013Z,93.20
2023-01-05T00:13:03.828Z,92.40
2023-01-05T00:16:09.863Z,92.50
2023-01-05T00:19:13.739Z,92.00
2023-01-05T00:22:17.780Z,91.60
2023-01-05T00:25:15.218Z,91.40
2023-01-05T00:28:00.709Z,90.60
2023-01-05T00:30:47.602Z,90.20
2023-01-05T00:33:33.421Z,89.60
2023-01-05T00:36:21.424Z,88.60
2023-01-05T00:39:09.865Z,86.20
2023-01-05T00:41:55.208Z,86.10
2023-01-05T00:44:45.602Z,84.20
2023-01-05T00:47:30.923Z,83.70
2023-01-05T00:50:18.027Z,83.80
2023-01-05T00:53:03.605Z,83.50
2023-01-05T00:55:59.112Z,82.80
2023-01-05T00:58:44.475Z,82.20
2023-01-05T01:01:30.130Z,81.60
2023-01-05T01:04:16.146Z,81.90
2023-01-05T01:07:02.653Z,81.00
2023-01-05T01:09:47.880Z,80.50
2023-01-05T01:12:33.408Z,80.60
2023-01-05T01:15:18.981Z,79.90
2023-01-05T01:18:04.710Z,79.30
2023-01-05T01:20:49.921Z,78.90
2023-01-05T01:23:37.790Z,78.40
2023-01-05T01:26:27.685Z,78.20
2023-01-05T01:29:17.255Z,78.40
2023-01-05T01:32:03.065Z,79.00
2023-01-05T01:34:48.372Z,79.70
2023-01-05T01:37:33.896Z,79.90
2023-01-05T01:40:21.221Z,79.70
2023-01-05T01:43:15.889Z,80.10
2023-01-05T01:46:05.758Z,79.40
2023-01-05T01:49:02.705Z,79.60
2023-01-05T01:51:53.584Z,79.90
2023-01-05T01:54:41.971Z,79.30
2023-01-05T01:57:29.240Z,79.20
2023-01-05T02:00:15.396Z,80.10
2023-01-05T02:03:01.137Z,78.50
2023-01-05T02:05:46.609Z,77.90
2023-01-05T02:08:32.302Z,78.50
2023-01-05T02:11:38.484Z,77.20
2023-01-05T02:14:36.181Z,77.10
2023-01-05T02:17:50.668Z,76.70
2023-01-05T02:20:51.508Z,76.80
2023-01-05T02:23:47.229Z,76.70
2023-01-05T02:26:46.688Z,76.30
2023-01-05T02:29:47.415Z,76.70
2023-01-05T02:32:59.282Z,77.10
2023-01-05T02:36:09.605Z,77.50
2023-01-05T02:39:16.158Z,77.00
2023-01-05T02:42:17.124Z,77.10
2023-01-05T02:45:05.381Z,76.80
2023-01-05T02:47:52.155Z,75.40
2023-01-05T02:50:48.076Z,75.60
2023-01-05T02:53:39.849Z,75.70
2023-01-05T02:56:35.719Z,75.90
2023-01-05T02:59:32.697Z,75.60
2023-01-05T03:02:27.750Z,75.30
2023-01-05T03:05:21.912Z,75.10
2023-01-05T03:08:10.561Z,74.50
2023-01-05T03:11:25.945Z,74.80
2023-01-05T03:14:22.751Z,74.30
2023-01-05T03:17:12.931Z,74.40
2023-01-05T03:20:00.264Z,74.40
2023-01-05T03:23:06.757Z,74.00
2023-01-05T03:26:13.083Z,73.80
2023-01-05T03:29:22.029Z,73.70
2023-01-05T03:32:41.774Z,73.70
2023-01-05T03:35:32.008Z,72.90
2023-01-05T03:38:41.826Z,72.80
2023-01-05T03:41:27.957Z,72.80
2023-01-05T03:44:13.573Z,72.70
2023-01-05T03:47:03.921Z,72.60
2023-01-05T03:49:50.397Z,72.80
2023-01-05T03:52:36.291Z,72.70
2023-01-05T03:55:22.612Z,72.60
2023-01-05T03:58:08.519Z,74.00
2023-01-05T04:00:53.958Z,73.80
2023-01-05T04:03:42.389Z,73.90
2023-01-05T04:06:28.108Z,74.00
2023-01-05T04:09:13.584Z,75.00
2023-01-05T04:11:58.924Z,76.10
2023-01-05T04:14:44.393Z,76.30
2023-01-05T04:17:30.211Z,76.20
2023-01-05T04:20:16.087Z,75.40
2023-01-05T04:23:01.324Z,77.00
2023-01-05T04:25:50.191Z,77.30
2023-01-05T04:28:37.437Z,76.70
2023-01-05T04:31:23.404Z,76.80
2023-01-05T04:34:09.001Z,77.70
2023-01-05T04:36:54.591Z,80.80
2023-01-05T04:39:42.989Z,82.10
2023-01-05T04:42:30.692Z,82.70
2023-01-05T04:45:16.456Z,83.30
2023-01-05T04:48:01.834Z,83.30
2023-01-05T04:50:54.693Z,83.30
2023-01-05T04:53:40.275Z,81.80
2023-01-05T04:56:26.224Z,81.00
2023-01-05T04:59:14.012Z,80.10
2023-01-05T05:01:59.522Z,85.40
2023-01-05T05:04:45.156Z,85.10
2023-01-05T05:07:30.500Z,84.30
2023-01-05T05:10:18.267Z,84.90
2023-01-05T05:13:06.376Z,84.50
2023-01-05T05:15:56.430Z,84.50
2023-01-05T05:18:44.799Z,85.30
2023-01-05T05:21:32.644Z,85.80
2023-01-05T05:24:18.153Z,85.30
2023-01-05T05:27:04.077Z,85.90
2023-01-05T05:29:49.261Z,86.10
2023-01-05T05:32:37.073Z,87.20
2023-01-05T05:35:26.288Z,90.40
2023-01-05T05:38:12.140Z,90.60
2023-01-05T05:40:57.656Z,90.40
2023-01-05T05:43:47.924Z,90.20
2023-01-05T05:46:35.476Z,89.50
2023-01-05T05:49:21.903Z,89.20
2023-01-05T05:52:09.451Z,88.10
2023-01-05T05:54:55.373Z,87.20
2023-01-05T05:57:43.434Z,87.30
2023-01-05T06:00:29.000Z,88.20
2023-01-05T06:03:14.788Z,91.00
2023-01-05T06:06:01.550Z,92.00
2023-01-05T06:08:46.784Z,99.90
2023-01-05T06:11:32.475Z,99.90
2023-01-05T06:14:18.080Z,99.90
2023-01-05T06:17:05.679Z,99.90
2023-01-05T06:19:51.034Z,99.90
2023-01-05T06:22:36.469Z,99.90
2023-01-05T06:25:24.400Z,99.90
2023-01-05T06:28:10.100Z,99.90
2023-01-05T06:30:55.354Z,99.90
2023-01-05T06:33:40.895Z,99.90
2023-01-05T06:36:28.169Z,99.90
2023-01-05T06:39:14.517Z,99.90
2023-01-05T06:41:59.886Z,99.90
2023-01-05T06:44:48.049Z,99.90
2023-01-05T06:47:33.695Z,99.90
2023-01-05T06:50:19.001Z,99.90
2023-01-05T06:53:06.668Z,99.90
2023-01-05T06:55:52.065Z,99.90
2023-01-05T06:58:37.287Z,99.90
2023-01-05T07:01:22.932Z,99.90
2023-01-05T07:04:08.635Z,99.90
2023-01-05T07:06:54.420Z,99.90
2023-01-05T07:09:45.026Z,99.90
2023-01-05T07:12:30.556Z,99.90
2023-01-05T07:15:16.797Z,99.90
2023-01-05T07:18:01.950Z,99.90
2023-01-05T07:20:47.200Z,99.90
2023-01-05T07:23:33.055Z,99.90
2023-01-05T07:26:18.968Z,99.90
2023-01-05T07:29:04.289Z,99.90
2023-01-05T07:31:52.334Z,99.90
2023-01-05T07:34:41.608Z,99.90
2023-01-05T07:37:27.526Z,99.90
2023-01-05T07:40:13.113Z,99.90
2023-01-05T07:42:58.622Z,99.90
2023-01-05T07:45:46.642Z,99.90
2023-01-05T07:48:31.903Z,99.90
2023-01-05T07:51:18.222Z,99.90
2023-01-05T07:54:03.497Z,99.90
2023-01-05T07:56:51.342Z,99.90
2023-01-05T07:59:37.196Z,99.90
2023-01-05T08:02:22.958Z,99.90
2023-01-05T08:05:09.349Z,99.90
2023-01-05T08:07:59.223Z,99.90
2023-01-05T08:10:45.195Z,99.90
2023-01-05T08:13:49.600Z,99.90
2023-01-05T08:16:37.508Z,99.90
2023-01-05T08:19:24.973Z,99.90
2023-01-05T08:22:10.791Z,99.90
2023-01-05T08:24:55.992Z,99.90
2023-01-05T08:27:45.897Z,99.90
2023-01-05T08:30:31.359Z,96.30
2023-01-05T08:33:17.118Z,92.50
2023-01-05T08:36:07.161Z,91.70
2023-01-05T08:38:54.595Z,93.00
2023-01-05T08:41:41.170Z,92.10
2023-01-05T08:44:29.243Z,90.70
2023-01-05T08:47:15.682Z,90.90
2023-01-05T08:50:04.146Z,88.90
2023-01-05T08:52:49.780Z,89.90
2023-01-05T08:55:39.649Z,91.30
2023-01-05T08:58:24.913Z,91.80
2023-01-05T09:01:12.859Z,91.00
2023-01-05T09:03:58.435Z,91.80
2023-01-05T09:06:48.795Z,91.90
2023-01-05T09:09:36.699Z,90.80
2023-01-05T09:12:22.287Z,91.20
2023-01-05T09:15:10.891Z,88.60
2023-01-05T09:17:56.613Z,90.50
2023-01-05T09:20:42.180Z,90.00
2023-01-05T09:23:28.273Z,90.40
2023-01-05T09:26:16.805Z,83.20
2023-01-05T09:29:04.724Z,84.90
2023-01-05T09:31:50.435Z,84.70
2023-01-05T09:34:37.466Z,82.20
2023-01-05T09:37:23.190Z,79.90
2023-01-05T09:40:09.951Z,80.50
2023-01-05T09:43:01.186Z,77.40
2023-01-05T09:45:48.291Z,76.10
2023-01-05T09:48:39.748Z,73.00
2023-01-05T09:51:26.285Z,72.50
2023-01-05T09:54:19.966Z,70.90
2023-01-05T09:57:14.855Z,72.20
2023-01-05T10:00:05.853Z,70.10
2023-01-05T10:03:00.621Z,69.10
2023-01-05T10:05:47.976Z,67.60
2023-01-05T10:08:41.137Z,67.20
2023-01-05T10:12:00.206Z,64.00
2023-01-05T10:15:12.688Z,63.80
2023-01-05T10:17:59.232Z,63.30
2023-01-05T10:20:50.688Z,63.90
2023-01-05T10:23:42.320Z,62.60
2023-01-05T10:27:23.217Z,62.60
2023-01-05T10:30:27.314Z,61.50
2023-01-05T10:33:38.689Z,60.80
2023-01-05T10:40:25.157Z,59.80
2023-01-05T10:43:26.051Z,59.00
2023-01-05T10:46:38.180Z,59.00
2023-01-05T10:49:31.654Z,57.40
2023-01-05T10:52:21.100Z,58.50
2023-01-05T10:55:15.858Z,58.30
2023-01-05T10:58:04.001Z,56.80
2023-01-05T11:00:50.191Z,56.70
2023-01-05T11:06:49.221Z,56.80
2023-01-05T11:09:40.440Z,56.60
2023-01-05T11:12:26.823Z,56.30
2023-01-05T11:15:15.150Z,56.70
2023-01-05T11:18:00.831Z,56.30
2023-01-05T11:21:05.842Z,56.70
2023-01-05T11:23:56.394Z,56.80
2023-01-05T11:27:03.751Z,56.80
2023-01-05T11:30:20.325Z,56.80
2023-01-05T11:33:17.332Z,57.00
2023-01-05T11:36:07.409Z,57.40
2023-01-05T11:38:55.857Z,58.40
2023-01-05T11:41:42.038Z,57.20
2023-01-05T11:44:27.483Z,57.10
2023-01-05T11:47:30.843Z,56.80
2023-01-05T11:50:26.357Z,56.40
2023-01-05T11:53:26.568Z,55.40
2023-01-05T11:56:22.518Z,56.70
2023-01-05T11:59:29.737Z,57.50
2023-01-05T12:02:55.680Z,58.40
2023-01-05T12:05:52.716Z,58.90
2023-01-05T12:09:02.633Z,58.60
2023-01-05T12:12:18.936Z,57.00
2023-01-05T12:15:22.372Z,56.40
2023-01-05T12:18:46.780Z,56.60
2023-01-05T12:21:48.305Z,56.60
2023-01-05T12:25:05.658Z,56.60
2023-01-05T12:28:35.927Z,56.70
2023-01-05T12:33:35.780Z,56.30
2023-01-05T12:35:08.117Z,55.50
2023-01-05T12:38:12.171Z,56.10
2023-01-05T12:41:42.511Z,55.70
2023-01-05T12:44:39.668Z,55.80
2023-01-05T12:47:42.966Z,55.60
2023-01-05T12:50:46.948Z,54.90
2023-01-05T12:53:35.418Z,54.60
2023-01-05T12:56:46.575Z,54.90
2023-01-05T12:59:41.994Z,54.90
2023-01-05T13:02:46.248Z,54.50
2023-01-05T13:06:03.859Z,54.30
2023-01-05T13:09:03.735Z,54.70
2023-01-05T13:12:13.621Z,54.80
2023-01-05T13:15:16.333Z,54.20
2023-01-05T13:18:05.034Z,54.60
2023-01-05T13:20:58.252Z,54.60
2023-01-05T13:23:50.193Z,54.60
2023-01-05T13:26:38.343Z,54.60
2023-01-05T13:29:35.411Z,54.50
2023-01-05T13:32:25.704Z,54.30
2023-01-05T13:35:44.062Z,55.00
2023-01-05T13:39:06.304Z,55.80
2023-01-05T13:42:25.193Z,56.00
2023-01-05T13:45:23.752Z,56.20
2023-01-05T13:48:38.318Z,56.20
2023-01-05T13:51:54.702Z,56.80
2023-01-05T13:55:00.765Z,57.00
2023-01-05T13:57:48.610Z,57.30
2023-01-05T14:00:37.236Z,57.80
2023-01-05T14:03:30.926Z,58.20
2023-01-05T14:06:24.058Z,58.90
2023-01-05T14:09:28.144Z,59.50
2023-01-05T14:12:16.355Z,59.90
2023-01-05T14:15:06.235Z,59.80
2023-01-05T14:17:58.292Z,59.80
2023-01-05T14:20:53.021Z,60.00
2023-01-05T14:23:39.693Z,60.50
2023-01-05T14:27:01.466Z,60.30
2023-01-05T14:29:46.821Z,60.80
2023-01-05T14:32:42.124Z,61.20
2023-01-05T14:35:37.115Z,61.10
2023-01-05T14:38:25.674Z,61.50
2023-01-05T14:41:26.582Z,62.00
2023-01-05T14:44:21.831Z,61.90
2023-01-05T14:47:09.598Z,62.10
2023-01-05T14:50:03.654Z,62.90
2023-01-05T14:53:02.916Z,62.20
2023-01-05T14:55:55.289Z,62.30
2023-01-05T14:58:41.279Z,62.10
2023-01-05T15:01:38.052Z,62.10
2023-01-05T15:04:37.358Z,62.30
2023-01-05T15:10:51.444Z,62.80
2023-01-05T15:14:21.360Z,61.80
2023-01-05T15:17:31.969Z,61.60
2023-01-05T15:21:05.374Z,61.60
2023-01-05T15:24:19.602Z,61.50
2023-01-05T15:27:39.019Z,61.40
2023-01-05T15:30:44.597Z,61.00
2023-01-05T15:33:45.855Z,61.00
2023-01-05T15:36:53.984Z,60.70
2023-01-05T15:39:49.351Z,60.40
2023-01-05T15:42:42.045Z,60.00
2023-01-05T15:45:43.023Z,60.10
2023-01-05T15:48:51.591Z,60.20
2023-01-05T15:51:37.788Z,60.30
2023-01-05T15:54:29.185Z,60.60
2023-01-05T15:57:20.509Z,60.70
2023-01-05T16:00:22.237Z,60.70
2023-01-05T16:03:22.468Z,60.70
2023-01-05T16:06:14.238Z,60.70
2023-01-05T16:09:08.408Z,60.60
2023-01-05T16:12:00.060Z,61.30
2023-01-05T16:14:47.196Z,61.80
2023-01-05T16:17:35.024Z,62.10
2023-01-05T16:20:43.525Z,62.60
2023-01-05T16:23:49.778Z,62.70
2023-01-05T16:26:37.727Z,63.20
2023-01-05T16:29:31.253Z,63.30
2023-01-05T16:32:39.107Z,63.60
2023-01-05T16:35:31.690Z,63.80
2023-01-05T16:38:30.305Z,64.20
2023-01-05T16:41:56.283Z,64.60
2023-01-05T16:44:43.798Z,65.00
2023-01-05T16:47:40.886Z,64.80
2023-01-05T16:50:38.323Z,64.20
2023-01-05T16:53:24.687Z,64.00
2023-01-05T16:56:33.082Z,63.70
2023-01-05T16:59:34.987Z,63.80
2023-01-05T17:02:47.971Z,64.00
2023-01-05T17:05:37.272Z,63.90
2023-01-05T17:08:27.359Z,63.70
2023-01-05T17:11:12.874Z,63.30
2023-01-05T17:14:01.968Z,63.40
2023-01-05T17:16:47.691Z,63.40
2023-01-05T17:19:36.178Z,63.30
2023-01-05T17:22:22.030Z,63.60
2023-01-05T17:25:12.648Z,64.00
2023-01-05T17:27:57.901Z,64.10
2023-01-05T17:30:44.302Z,64.20
2023-01-05T17:33:30.068Z,64.60
2023-01-05T17:39:06.035Z,65.30
2023-01-05T17:41:51.802Z,65.00
2023-01-05T17:44:37.283Z,65.00
2023-01-05T17:47:22.834Z,64.80
2023-01-05T17:50:12.086Z,64.60
2023-01-05T17:52:59.731Z,64.20
2023-01-05T17:55:45.736Z,64.00
2023-01-05T17:58:31.328Z,64.20
2023-01-05T18:01:19.438Z,64.60
2023-01-05T18:04:05.367Z,65.10
2023-01-05T18:06:50.747Z,64.60
2023-01-05T18:09:38.784Z,63.90
2023-01-05T18:12:27.556Z,63.90
2023-01-05T18:15:14.872Z,63.70
2023-01-05T18:18:01.133Z,64.00
2023-01-05T18:20:52.581Z,63.80
2023-01-05T18:23:38.578Z,64.00
2023-01-05T18:26:24.362Z,63.90
2023-01-05T18:29:12.225Z,63.80
2023-01-05T18:31:57.802Z,63.90
2023-01-05T18:34:49.073Z,63.80
2023-01-05T18:37:34.781Z,63.50
2023-01-05T18:40:20.708Z,63.80
2023-01-05T18:43:10.893Z,63.90
2023-01-05T18:45:56.820Z,63.80
2023-01-05T18:48:42.375Z,63.80
2023-01-05T18:51:30.457Z,64.30
2023-01-05T18:54:18.447Z,64.50
2023-01-05T18:57:04.645Z,64.80
2023-01-05T18:59:53.010Z,64.70
2023-01-05T19:02:40.195Z,64.70
2023-01-05T19:05:26.063Z,65.00
2023-01-05T19:08:12.933Z,65.00
2023-01-05T19:11:01.829Z,64.60
2023-01-05T19:13:49.172Z,64.50
2023-01-05T19:16:35.838Z,64.00
2023-01-05T19:19:25.085Z,64.20
2023-01-05T19:22:13.005Z,63.80
2023-01-05T19:25:01.088Z,63.40
2023-01-05T19:27:46.947Z,63.10
2023-01-05T19:30:32.158Z,63.10
2023-01-05T19:33:19.590Z,62.90
2023-01-05T19:36:10.514Z,63.00
2023-01-05T19:38:55.715Z,62.60
2023-01-05T19:41:46.690Z,62.40
2023-01-05T19:44:36.777Z,62.50
2023-01-05T19:47:22.102Z,62.00
2023-01-05T19:50:09.481Z,61.70
2023-01-05T19:52:57.119Z,61.80
2023-01-05T19:55:42.411Z,61.50
2023-01-05T19:58:28.460Z,61.60
2023-01-05T20:01:18.071Z,61.60
2023-01-05T20:04:03.947Z,61.60
2023-01-05T20:06:53.915Z,61.90
2023-01-05T20:09:39.269Z,61.80
2023-01-05T20:12:25.210Z,62.20
2023-01-05T20:15:11.830Z,62.00
2023-01-05T20:17:57.158Z,62.70
2023-01-05T20:20:45.111Z,63.10
2023-01-05T20:23:41.159Z,63.10
2023-01-05T20:26:27.516Z,63.90
2023-01-05T20:29:15.053Z,64.30
2023-01-05T20:32:02.478Z,64.50
2023-01-05T20:35:00.180Z,65.10
2023-01-05T20:37:45.728Z,65.40
2023-01-05T20:40:31.629Z,65.80
2023-01-05T20:43:19.400Z,66.10
2023-01-05T20:46:06.951Z,66.10
2023-01-05T20:48:53.755Z,66.20
2023-01-05T20:51:44.805Z,65.80
2023-01-05T20:54:30.155Z,66.00
2023-01-05T20:57:17.903Z,66.10
2023-01-05T21:00:05.512Z,66.30
2023-01-05T21:02:51.764Z,66.10
2023-01-05T21:05:41.339Z,65.30
2023-01-05T21:08:26.872Z,64.60
2023-01-05T21:11:25.725Z,64.20
2023-01-05T21:14:12.523Z,64.10
2023-01-05T21:16:58.044Z,64.30
2023-01-05T21:19:43.421Z,64.60
2023-01-05T21:22:31.339Z,65.00
2023-01-05T21:25:16.754Z,65.00
2023-01-05T21:28:04.234Z,65.00
2023-01-05T21:30:49.721Z,65.50
2023-01-05T21:33:38.175Z,65.70
2023-01-05T21:36:25.957Z,65.80
2023-01-05T21:39:21.535Z,66.30
2023-01-05T21:42:28.585Z,66.70
2023-01-05T21:45:14.471Z,66.60
2023-01-05T21:47:59.804Z,65.90
2023-01-05T21:51:03.865Z,65.60
2023-01-05T21:54:08.807Z,65.50
2023-01-05T21:56:55.276Z,65.60
2023-01-05T21:59:41.524Z,65.20
2023-01-05T22:02:26.862Z,64.20
2023-01-05T22:05:17.154Z,64.00
2023-01-05T22:08:02.460Z,63.80
2023-01-05T22:10:54.946Z,63.30
2023-01-05T22:13:43.233Z,63.10
2023-01-05T22:16:30.715Z,63.20
2023-01-05T22:19:18.664Z,63.00
2023-01-05T22:22:04.595Z,63.00
2023-01-05T22:24:50.184Z,62.90
2023-01-05T22:27:35.636Z,62.60
2023-01-05T22:30:21.499Z,62.30
2023-01-05T22:33:06.675Z,62.50
2023-01-05T22:35:52.322Z,63.00
2023-01-05T22:38:45.089Z,63.70
2023-01-05T22:41:33.948Z,63.90
2023-01-05T22:44:19.583Z,64.20
2023-01-05T22:47:09.899Z,64.40
2023-01-05T22:49:55.444Z,65.00
2023-01-05T22:52:40.729Z,65.10
2023-01-05T22:55:26.006Z,65.70
2023-01-05T22:58:13.818Z,67.00
2023-01-05T23:01:15.056Z,66.50
2023-01-05T23:04:02.964Z,67.40
2023-01-05T23:06:48.538Z,68.10
2023-01-05T23:09:34.032Z,69.10
2023-01-05T23:12:19.641Z,69.30
2023-01-05T23:15:07.825Z,70.00
2023-01-05T23:17:55.777Z,70.20
2023-01-05T23:20:43.891Z,70.40
2023-01-05T23:23:29.511Z,71.10
2023-01-05T23:26:18.173Z,71.20
2023-01-05T23:29:04.036Z,71.40
2023-01-05T23:31:49.307Z,71.90
2023-01-05T23:34:39.030Z,72.20
2023-01-05T23:37:25.857Z,72.40
2023-01-05T23:40:11.723Z,72.80
2023-01-05T23:42:57.376Z,73.20
2023-01-05T23:45:46.288Z,73.40
2023-01-05T23:48:32.285Z,73.60
2023-01-05T23:51:22.191Z,74.00
2023-01-05T23:54:07.813Z,74.10
2023-01-05T23:56:55.245Z,74.40
2023-01-05T23:59:43.240Z,74.30
